Time;durP1;ratioP1;P1;durP2;ratioP2;P2;SDS_P1;SDS_P2;PMS_P1;PMS_P2;Temp;Humidity;BMP_temperature;BMP_pressure;BME280_temperature;BME280_humidity;BME280_pressure;Samples;Min_cycle;Max_cycle;Signal;HPM_P1;HPM_P2
2022/05/31 00:00:28;;;;;;;3.77;2.67;;;;;;;5.71;100.00;100770.09;4959978;28;20226;-75
2022/05/31 00:02:56;;;;;;;2.60;2.40;;;;;;;5.78;100.00;100771.78;4966634;28;20871;-75
2022/05/31 00:05:24;;;;;;;5.33;2.50;;;;;;;5.86;100.00;100777.81;4956583;28;20296;-75
2022/05/31 00:07:50;;;;;;;3.57;2.53;;;;;;;5.98;100.00;100768.28;4963352;28;20237;-75
2022/05/31 00:10:18;;;;;;;2.80;2.27;;;;;;;5.91;100.00;100774.34;4956161;28;20198;-75
2022/05/31 00:12:45;;;;;;;4.50;2.43;;;;;;;5.72;100.00;100776.13;4961674;28;20202;-75
2022/05/31 00:15:14;;;;;;;4.40;2.43;;;;;;;5.37;100.00;100774.53;4960231;28;20779;-75
2022/05/31 00:17:41;;;;;;;2.40;2.20;;;;;;;5.53;100.00;100772.78;4962251;28;20598;-75
2022/05/31 00:20:10;;;;;;;4.03;2.40;;;;;;;5.66;100.00;100779.59;4955313;28;20637;-75
2022/05/31 00:22:39;;;;;;;2.83;2.37;;;;;;;5.63;100.00;100771.88;4960864;28;20569;-75
2022/05/31 00:25:07;;;;;;;2.37;2.10;;;;;;;5.68;100.00;100778.75;4962734;28;22006;-75
2022/05/31 00:27:35;;;;;;;4.73;2.77;;;;;;;5.48;100.00;100778.78;4959133;28;20241;-75
2022/05/31 00:30:03;;;;;;;2.97;2.47;;;;;;;5.14;100.00;100780.59;4959136;28;20657;-75
2022/05/31 00:32:32;;;;;;;3.70;2.33;;;;;;;5.51;100.00;100780.53;4960001;28;20213;-75
2022/05/31 00:35:05;;;;;;;3.03;2.30;;;;;;;5.49;100.00;100775.34;4963808;28;20353;-75
2022/05/31 00:37:33;;;;;;;3.50;2.30;;;;;;;5.36;100.00;100775.38;4959814;28;20636;-75
2022/05/31 00:40:00;;;;;;;4.27;2.40;;;;;;;5.45;100.00;100775.34;4957830;28;20222;-75
2022/05/31 00:42:27;;;;;;;2.13;1.93;;;;;;;5.32;100.00;100772.81;4961880;28;20233;-75
2022/05/31 00:44:55;;;;;;;2.83;2.53;;;;;;;5.27;100.00;100774.53;4941954;28;20202;-75
2022/05/31 00:47:34;;;;;;;2.47;2.27;;;;;;;5.13;100.00;100773.69;4950812;28;20221;-75
2022/05/31 00:50:03;;;;;;;3.07;2.10;;;;;;;5.21;100.00;100773.72;4962537;28;20206;-75
2022/05/31 00:52:33;;;;;;;3.33;2.20;;;;;;;5.12;100.00;100772.00;4955946;28;20201;-75
2022/05/31 00:55:04;;;;;;;2.87;2.10;;;;;;;5.30;100.00;100774.53;4943373;28;20210;-75
2022/05/31 00:57:34;;;;;;;3.53;2.30;;;;;;;5.25;100.00;100771.09;4940646;28;20280;-75
2022/05/31 01:00:09;;;;;;;2.60;2.07;;;;;;;5.32;100.00;100771.94;4939609;28;20261;-75
2022/05/31 01:02:36;;;;;;;2.63;1.93;;;;;;;5.33;100.00;100778.84;4962973;28;20206;-75
2022/05/31 01:05:05;;;;;;;2.20;1.83;;;;;;;5.33;100.00;100786.63;4945336;28;20233;-75
2022/05/31 01:07:32;;;;;;;2.07;1.87;;;;;;;5.05;100.00;100786.63;4940475;28;20219;-75
2022/05/31 01:09:59;;;;;;;3.20;2.23;;;;;;;5.02;100.00;100783.19;4943891;28;20238;-73
2022/05/31 01:12:59;;;;;;;1.97;1.83;;;;;;;5.11;100.00;100786.63;4956270;28;20206;-73
2022/05/31 01:16:06;;;;;;;2.67;2.03;;;;;;;4.92;100.00;100792.66;4945709;28;20848;-73
2022/05/31 01:18:51;;;;;;;2.47;2.20;;;;;;;5.02;100.00;100783.19;4965904;28;20285;-73
2022/05/31 01:21:37;;;;;;;3.60;2.33;;;;;;;5.16;100.00;100785.78;4964337;28;20220;-73
2022/05/31 01:24:21;;;;;;;4.07;2.63;;;;;;;4.87;100.00;100782.34;4947349;28;20702;-73
2022/05/31 01:26:54;;;;;;;3.50;2.37;;;;;;;4.99;100.00;100786.63;4953907;28;21626;-73
2022/05/31 01:29:24;;;;;;;2.70;2.37;;;;;;;5.04;100.00;100786.63;4943878;28;20222;-73
2022/05/31 01:31:56;;;;;;;4.43;2.20;;;;;;;5.01;100.00;100782.31;4949300;28;20295;-73
2022/05/31 01:34:29;;;;;;;2.37;2.17;;;;;;;5.09;100.00;100785.75;4963142;28;20637;-73
2022/05/31 01:36:58;;;;;;;2.30;1.80;;;;;;;5.12;100.00;100777.16;4962168;28;20567;-73
2022/05/31 01:39:30;;;;;;;3.83;2.50;;;;;;;5.05;100.00;100786.63;4946412;28;21279;-73
2022/05/31 01:42:00;;;;;;;2.80;2.23;;;;;;;5.00;100.00;100784.94;4944236;28;20210;-73
2022/05/31 01:44:33;;;;;;;2.23;1.97;;;;;;;5.10;100.00;100784.03;4950767;28;20210;-73
2022/05/31 01:47:02;;;;;;;2.47;2.23;;;;;;;5.14;100.00;100785.78;4964656;28;20206;-73
2022/05/31 01:49:33;;;;;;;2.90;2.23;;;;;;;5.06;100.00;100784.91;4959553;28;20221;-73
2022/05/31 01:52:01;;;;;;;3.20;2.63;;;;;;;5.06;100.00;100783.19;4946624;28;20224;-73
2022/05/31 01:54:28;;;;;;;3.03;2.20;;;;;;;4.91;100.00;100772.88;4940380;28;20214;-73
2022/05/31 01:57:00;;;;;;;2.03;1.83;;;;;;;5.09;100.00;100779.75;4951362;28;20211;-73
2022/05/31 01:59:30;;;;;;;5.00;2.17;;;;;;;5.08;100.00;100781.47;4944018;28;20222;-73
2022/05/31 02:01:56;;;;;;;3.53;2.27;;;;;;;5.00;100.00;100780.63;4954576;28;20208;-73
2022/05/31 02:04:23;;;;;;;2.57;2.17;;;;;;;4.93;100.00;100787.50;4963516;28;20209;-73
2022/05/31 02:07:10;;;;;;;4.13;1.83;;;;;;;5.00;100.00;100778.03;4968334;28;20208;-73
2022/05/31 02:09:38;;;;;;;4.43;2.53;;;;;;;4.74;100.00;100785.78;4945410;28;20191;-73
2022/05/31 02:12:06;;;;;;;4.23;2.53;;;;;;;4.65;100.00;100780.63;4946882;28;20202;-73
2022/05/31 02:14:33;;;;;;;2.43;2.10;;;;;;;4.76;100.00;100783.19;4947724;28;20210;-73
2022/05/31 02:17:00;;;;;;;2.27;1.90;;;;;;;4.74;100.00;100784.06;4966958;28;20684;-73
2022/05/31 02:19:46;;;;;;;2.83;2.20;;;;;;;4.67;100.00;100789.22;4959500;28;20866;-73
2022/05/31 02:22:22;;;;;;;3.57;1.93;;;;;;;4.48;100.00;100789.19;4951526;28;20209;-73
2022/05/31 02:24:50;;;;;;;5.13;2.30;;;;;;;4.64;100.00;100792.66;4947690;28;20203;-73
2022/05/31 02:27:17;;;;;;;2.20;1.80;;;;;;;4.66;100.00;100790.06;4947690;28;20241;-73
2022/05/31 02:29:44;;;;;;;2.10;1.90;;;;;;;4.76;100.00;100794.38;4959847;28;20208;-73
2022/05/31 02:32:14;;;;;;;2.20;1.57;;;;;;;4.87;100.00;100792.69;4947642;28;20205;-73
2022/05/31 02:34:43;;;;;;;1.80;1.67;;;;;;;4.89;100.00;100798.72;4946543;28;20207;-73
2022/05/31 02:37:11;;;;;;;4.50;2.00;;;;;;;4.73;100.00;100797.84;4943622;28;20300;-73
2022/05/31 02:39:38;;;;;;;3.77;2.10;;;;;;;4.49;100.00;100803.84;4963793;28;20698;-73
2022/05/31 02:42:07;;;;;;;2.90;1.90;;;;;;;4.63;100.00;100798.69;4960334;28;20201;-72
2022/05/31 02:44:35;;;;;;;2.10;1.90;;;;;;;4.72;100.00;100798.69;4950051;28;20202;-73
2022/05/31 02:47:01;;;;;;;2.00;1.70;;;;;;;4.51;100.00;100806.44;4949053;28;20592;-73
2022/05/31 02:49:28;;;;;;;2.83;1.93;;;;;;;4.72;100.00;100803.00;4944424;28;20202;-73
2022/05/31 02:51:55;;;;;;;2.83;2.30;;;;;;;4.71;100.00;100799.56;4944114;28;20203;-72
2022/05/31 02:54:22;;;;;;;2.97;2.20;;;;;;;4.86;100.00;100801.28;4950399;28;20265;-73
2022/05/31 02:57:09;;;;;;;2.93;1.80;;;;;;;4.81;100.00;100794.41;4964847;28;20282;-73
2022/05/31 02:59:54;;;;;;;3.33;1.77;;;;;;;5.00;100.00;100800.44;4961791;28;20221;-73
2022/05/31 03:02:44;;;;;;;3.77;1.90;;;;;;;4.87;100.00;100800.44;4961796;28;20210;-72
2022/05/31 03:05:39;;;;;;;3.00;2.20;;;;;;;4.61;100.00;100797.84;4960235;28;20246;-73
2022/05/31 03:08:18;;;;;;;3.27;1.83;;;;;;;4.43;100.00;100803.81;4947644;28;20229;-73
2022/05/31 03:11:11;;;;;;;2.63;2.10;;;;;;;4.58;100.00;100800.41;4956157;28;20201;-73
2022/05/31 03:13:39;;;;;;;2.20;1.90;;;;;;;4.59;100.00;100801.25;4946056;28;20221;-73
2022/05/31 03:16:06;;;;;;;2.30;2.03;;;;;;;4.65;100.00;100801.28;4960790;28;20206;-73
2022/05/31 03:18:35;;;;;;;2.67;2.10;;;;;;;4.81;100.00;100802.16;4962529;28;20234;-73
2022/05/31 03:21:08;;;;;;;3.27;2.10;;;;;;;4.84;100.00;100807.31;4963385;28;20222;-73
2022/05/31 03:23:38;;;;;;;2.43;1.73;;;;;;;4.80;100.00;100805.59;4965482;28;20578;-73
2022/05/31 03:26:09;;;;;;;2.67;2.03;;;;;;;4.88;100.00;100801.28;4951975;28;20663;-73
2022/05/31 03:28:36;;;;;;;2.87;2.13;;;;;;;4.95;100.00;100797.00;4962305;28;20229;-73
2022/05/31 03:31:05;;;;;;;1.87;1.67;;;;;;;4.74;100.00;100804.72;4959978;28;20252;-73
2022/05/31 03:33:33;;;;;;;4.33;1.97;;;;;;;4.87;100.00;100799.56;4947192;28;20302;-73
2022/05/31 03:35:59;;;;;;;2.33;1.73;;;;;;;5.06;100.00;100803.00;4962169;28;20292;-73
2022/05/31 03:38:31;;;;;;;3.63;2.30;;;;;;;5.11;100.00;100798.69;4945513;28;20238;-73
2022/05/31 03:41:00;;;;;;;2.87;1.90;;;;;;;5.17;100.00;100800.41;4948231;28;20321;-73
2022/05/31 03:43:33;;;;;;;2.87;2.27;;;;;;;5.13;100.00;100797.81;4946503;28;20202;-73
2022/05/31 03:46:34;;;;;;;3.00;2.20;;;;;;;5.32;100.00;100797.81;4935210;28;20749;-73
2022/05/31 03:49:20;;;;;;;2.87;2.47;;;;;;;5.30;100.00;100797.81;4964094;28;20233;-73
2022/05/31 03:51:53;;;;;;;3.23;2.13;;;;;;;5.30;100.00;100805.56;4947740;28;20345;-73
2022/05/31 03:54:25;;;;;;;4.60;2.10;;;;;;;5.24;100.00;100807.28;4963406;28;21162;-73
2022/05/31 03:57:15;;;;;;;4.53;2.27;;;;;;;4.98;100.00;100805.59;4960687;28;20236;-73
2022/05/31 03:59:41;;;;;;;7.87;2.60;;;;;;;5.03;100.00;100810.75;4944336;28;20655;-73
2022/05/31 04:02:09;;;;;;;3.10;2.20;;;;;;;5.43;100.00;100808.13;4945754;28;20210;-73
2022/05/31 04:04:37;;;;;;;3.20;2.50;;;;;;;5.79;100.00;100808.91;4944822;28;20533;-73
2022/05/31 04:07:04;;;;;;;3.50;2.73;;;;;;;5.78;100.00;100812.34;4938071;28;20206;-73
2022/05/31 04:09:32;;;;;;;5.33;2.83;;;;;;;5.71;100.00;100813.22;4942569;28;20199;-73
2022/05/31 04:11:59;;;;;;;4.67;3.10;;;;;;;5.91;100.00;100811.44;4957369;28;20206;-73
2022/05/31 04:14:46;;;;;;;5.33;3.40;;;;;;;6.19;100.00;100817.41;4921669;28;20265;-73
2022/05/31 04:17:14;;;;;;;3.70;2.83;;;;;;;6.35;100.00;100810.41;4936821;28;20226;-73
2022/05/31 04:19:40;;;;;;;6.50;3.00;;;;;;;6.58;100.00;100806.81;4948367;28;20694;-73
2022/05/31 04:22:07;;;;;;;5.17;2.93;;;;;;;6.62;100.00;100803.31;4946418;28;21136;-73
2022/05/31 04:24:34;;;;;;;8.20;3.87;;;;;;;6.79;100.00;100805.81;4939510;28;20242;-73
2022/05/31 04:27:19;;;;;;;6.53;3.27;;;;;;;6.90;100.00;100801.38;4957118;28;20605;-73
2022/05/31 04:30:15;;;;;;;7.63;3.97;;;;;;;6.96;100.00;100803.91;4874224;28;20259;-73
2022/05/31 04:33:12;;;;;;;5.47;3.90;;;;;;;7.19;100.00;100805.44;4954142;28;20289;-73
2022/05/31 04:35:40;;;;;;;6.80;3.90;;;;;;;7.19;100.00;100808.03;4938985;28;20388;-73
2022/05/31 04:38:07;;;;;;;8.33;4.43;;;;;;;7.15;100.00;100809.78;4963312;28;20311;-73
2022/05/31 04:40:54;;;;;;;10.53;4.33;;;;;;;7.19;100.00;100806.31;4946112;28;20218;-73
2022/05/31 04:43:46;;;;;;;4.13;3.73;;;;;;;7.37;100.00;100802.69;4939778;28;20202;-73
2022/05/31 04:46:19;;;;;;;4.00;3.60;;;;;;;7.58;100.00;100806.78;4942245;28;20211;-73
2022/05/31 04:48:59;;;;;;;6.30;4.43;;;;;;;7.74;100.00;100810.06;4943335;28;20317;-73
2022/05/31 04:51:29;;;;;;;6.70;3.80;;;;;;;7.91;100.00;100806.41;4958663;28;20642;-73
2022/05/31 04:53:58;;;;;;;6.80;4.23;;;;;;;8.18;100.00;100810.41;4953643;28;20671;-73
2022/05/31 04:56:42;;;;;;;5.63;4.33;;;;;;;8.42;100.00;100806.63;4958302;28;20209;-73
2022/05/31 04:59:11;;;;;;;6.07;3.80;;;;;;;8.58;100.00;100817.66;4934484;23;20723;-73
2022/05/31 05:01:39;;;;;;;6.60;4.00;;;;;;;8.58;100.00;100814.19;4887880;29;20779;-73
2022/05/31 05:04:13;;;;;;;5.90;4.83;;;;;;;8.64;100.00;100819.31;4874973;29;20215;-73
2022/05/31 05:06:46;;;;;;;6.10;4.10;;;;;;;8.79;100.00;100819.06;4881787;29;20298;-72
2022/05/31 05:09:13;;;;;;;4.70;3.40;;;;;;;8.89;100.00;100819.78;4909128;29;20235;-72
2022/05/31 05:11:59;;;;;;;4.97;3.87;;;;;;;8.96;100.00;100815.34;4899558;29;20194;-73
2022/05/31 05:14:32;;;;;;;4.10;3.53;;;;;;;9.18;100.00;100813.22;4904813;29;20706;-72
2022/05/31 05:17:02;;;;;;;4.07;3.20;;;;;;;9.27;100.00;100819.16;4899547;29;20225;-73
2022/05/31 05:19:33;;;;;;;4.27;3.13;;;;;;;9.38;100.00;100825.91;4905959;29;20691;-73
2022/05/31 05:21:59;;;;;;;3.40;3.10;;;;;;;9.45;100.00;100833.56;4903758;29;20740;-73
2022/05/31 05:24:26;;;;;;;4.20;2.97;;;;;;;9.56;100.00;100825.56;4900708;29;20696;-73
2022/05/31 05:27:13;;;;;;;6.43;2.63;;;;;;;9.76;100.00;100827.81;4899427;29;20682;-73
2022/05/31 05:32:51;;;;;;;4.20;2.90;;;;;;;9.91;100.00;100834.44;4904455;29;20257;-72
2022/05/31 05:35:28;;;;;;;2.93;2.63;;;;;;;10.04;100.00;100835.03;4899401;29;20211;-73
2022/05/31 05:38:06;;;;;;;4.03;3.07;;;;;;;10.16;100.00;100832.16;4899595;29;20574;-72
2022/05/31 05:40:36;;;;;;;4.43;3.60;;;;;;;10.23;100.00;100846.78;4901132;29;20217;-72
2022/05/31 05:43:08;;;;;;;4.07;2.63;;;;;;;10.32;100.00;100842.31;4904377;29;20275;-73
2022/05/31 05:45:56;;;;;;;3.93;3.10;;;;;;;10.36;100.00;100842.22;4896984;29;20251;-72
2022/05/31 05:48:22;;;;;;;4.33;2.67;;;;;;;10.45;100.00;100842.88;4899691;29;20711;-73
2022/05/31 05:50:50;;;;;;;3.70;2.73;;;;;;;10.57;100.00;100840.00;4901568;29;20811;-73
2022/05/31 05:53:46;;;;;;;2.77;2.47;;;;;;;10.76;100.00;100840.44;4856600;29;20217;-72
2022/05/31 05:56:32;;;;;;;3.83;2.50;;;;;;;10.90;100.00;100838.38;4908017;29;20222;-73
2022/05/31 05:59:27;;;;;;;5.67;2.23;;;;;;;11.13;100.00;100836.94;4868670;29;20273;-73
2022/05/31 06:02:28;;;;;;;4.57;2.50;;;;;;;11.22;100.00;100839.34;4889587;29;20213;-73
2022/05/31 06:05:18;;;;;;;2.80;2.03;;;;;;;11.36;100.00;100837.25;4903715;29;20240;-73
2022/05/31 06:07:50;;;;;;;2.33;2.10;;;;;;;11.44;100.00;100851.84;4923521;29;20216;-72
2022/05/31 06:10:21;;;;;;;2.80;1.73;;;;;;;11.53;100.00;100851.59;4921362;29;20210;-73
2022/05/31 06:12:51;;;;;;;1.63;1.53;;;;;;;11.63;100.00;100841.78;4906499;29;20216;-72
2022/05/31 06:15:21;;;;;;;2.50;2.10;;;;;;;11.71;100.00;100850.22;4908162;29;20210;-73
2022/05/31 06:17:52;;;;;;;2.17;1.47;;;;;;;11.78;100.00;100856.16;4906230;29;20262;-73
2022/05/31 06:20:20;;;;;;;4.63;1.40;;;;;;;11.84;100.00;100856.84;4906369;29;20236;-72
2022/05/31 06:22:48;;;;;;;1.73;1.50;;;;;;;11.89;99.84;100868.03;4908995;29;20243;-72
2022/05/31 06:25:20;;;;;;;2.47;1.80;;;;;;;11.97;100.00;100870.44;4902128;29;20325;-73
2022/05/31 06:28:06;;;;;;;2.10;1.27;;;;;;;12.08;100.00;100863.19;4905837;29;20482;-73
2022/05/31 06:30:32;;;;;;;1.60;1.43;;;;;;;12.17;100.00;100866.41;4909872;29;20202;-72
2022/05/31 06:32:59;;;;;;;1.77;1.50;;;;;;;12.19;98.88;100868.09;4908906;29;20277;-73
2022/05/31 06:35:26;;;;;;;2.70;1.47;;;;;;;12.25;97.84;100873.13;4920616;29;20201;-72
2022/05/31 06:37:59;;;;;;;1.40;1.10;;;;;;;12.37;99.36;100858.00;4915809;29;20348;-72
2022/05/31 06:40:26;;;;;;;1.47;1.27;;;;;;;12.45;93.29;100866.44;4908431;29;20239;-72
2022/05/31 06:43:01;;;;;;;1.27;1.13;;;;;;;12.50;92.58;100867.19;4907535;29;20846;-73
2022/05/31 06:45:46;;;;;;;1.17;1.00;;;;;;;12.37;87.76;100874.53;4904987;29;20218;-72
2022/05/31 06:48:32;;;;;;;2.80;1.20;;;;;;;12.37;92.22;100860.63;4905135;29;20227;-73
2022/05/31 06:56:48;;;;;;;1.20;0.97;;;;;;;12.44;88.29;100881.28;4904069;29;20219;-72
2022/05/31 06:57:47;;;;;;;1.30;1.20;;;;;;;12.55;88.35;100875.75;4906145;29;20642;-72
2022/05/31 07:00:22;;;;;;;1.10;1.00;;;;;;;12.63;89.45;100868.53;4908422;29;20305;-72
2022/05/31 07:02:49;;;;;;;1.10;1.00;;;;;;;12.72;93.96;100863.88;4903696;29;20277;-72
2022/05/31 07:05:17;;;;;;;3.70;1.23;;;;;;;12.81;91.73;100874.94;4907742;29;20216;-72
2022/05/31 07:07:43;;;;;;;3.13;1.10;;;;;;;12.99;91.14;100867.41;4920792;29;20612;-73
2022/05/31 07:10:30;;;;;;;1.63;1.20;;;;;;;13.16;88.95;100872.09;4906239;29;20719;-72
2022/05/31 07:13:32;;;;;;;1.30;1.10;;;;;;;13.29;87.06;100867.31;4846220;29;20206;-72
2022/05/31 07:16:17;;;;;;;3.27;1.20;;;;;;;13.51;87.90;100860.47;4902162;29;20695;-72
2022/05/31 07:19:16;;;;;;;1.20;1.10;;;;;;;13.78;86.89;100866.50;4907044;29;20227;-72
2022/05/31 07:21:44;;;;;;;1.07;0.93;;;;;;;13.67;83.74;100866.03;4909506;29;20239;-73
2022/05/31 07:24:11;;;;;;;4.60;1.50;;;;;;;13.63;82.42;100867.91;4903152;29;20226;-72
2022/05/31 07:26:51;;;;;;;1.83;1.20;;;;;;;13.77;79.61;100867.41;4909261;29;20544;-73
2022/05/31 07:29:18;;;;;;;1.97;1.10;;;;;;;13.96;79.10;100859.72;4904265;29;20699;-72
2022/05/31 07:31:45;;;;;;;1.83;1.10;;;;;;;14.17;80.21;100862.47;4908651;29;20215;-72
2022/05/31 07:34:17;;;;;;;1.03;0.93;;;;;;;14.25;74.53;100872.66;4925365;29;20298;-73
2022/05/31 07:36:44;;;;;;;1.40;0.90;;;;;;;14.33;74.43;100873.25;4907149;29;20228;-72
2022/05/31 07:39:14;;;;;;;1.07;1.00;;;;;;;14.65;75.46;100871.19;4921890;29;20322;-69
2022/05/31 07:41:41;;;;;;;3.13;1.10;;;;;;;14.98;80.45;100860.25;4906892;29;20233;-69
2022/05/31 07:44:10;;;;;;;1.87;1.30;;;;;;;15.02;70.47;100874.97;4904308;29;20207;-71
2022/05/31 07:46:39;;;;;;;1.70;1.20;;;;;;;15.18;74.53;100864.69;4901863;29;20536;-72
2022/05/31 07:49:05;;;;;;;2.73;1.20;;;;;;;15.20;72.61;100865.50;4900704;29;20226;-72
2022/05/31 07:51:42;;;;;;;1.20;1.10;;;;;;;15.38;68.46;100867.34;4903560;29;20200;-72
2022/05/31 07:54:44;;;;;;;2.17;1.10;;;;;;;15.49;69.83;100861.63;4905135;29;20210;-72
2022/05/31 07:58:30;;;;;;;2.50;1.63;;;;;;;15.65;69.51;100860.03;4907915;29;20211;-72
2022/05/31 08:00:18;;;;;;;1.93;1.30;;;;;;;15.90;66.81;100851.13;4904131;29;20366;-73
2022/05/31 08:02:47;;;;;;;2.40;1.20;;;;;;;15.95;65.36;100857.00;4910065;29;20236;-73
2022/05/31 08:05:14;;;;;;;2.20;1.20;;;;;;;16.11;67.85;100853.69;4903998;29;20215;-72
2022/05/31 08:07:40;;;;;;;1.03;1.00;;;;;;;16.04;66.88;100856.59;4904768;29;20290;-72
2022/05/31 08:10:09;;;;;;;1.30;1.20;;;;;;;16.09;66.47;100859.00;4906945;29;20287;-72
2022/05/31 08:12:35;;;;;;;2.27;1.40;;;;;;;15.98;67.97;100854.25;4904127;29;20216;-72
2022/05/31 08:15:02;;;;;;;1.73;1.17;;;;;;;16.08;62.58;100860.78;4909442;29;20211;-72
2022/05/31 08:17:29;;;;;;;1.47;1.10;;;;;;;16.30;65.25;100857.16;4904297;29;20213;-72
2022/05/31 08:19:56;;;;;;;1.90;1.30;;;;;;;16.37;60.50;100858.59;4910285;29;20203;-72
2022/05/31 08:22:22;;;;;;;4.17;1.03;;;;;;;16.60;59.43;100868.06;4904757;29;20220;-72
2022/05/31 08:24:49;;;;;;;1.83;1.20;;;;;;;16.54;55.91;100864.88;4910658;29;20211;-72
2022/05/31 08:27:15;;;;;;;1.43;1.10;;;;;;;16.34;58.90;100855.25;4904753;29;20302;-72
2022/05/31 08:29:42;;;;;;;1.80;1.40;;;;;;;16.38;62.25;100851.56;4907562;29;20242;-72
2022/05/31 08:32:09;;;;;;;4.40;1.60;;;;;;;16.50;62.62;100848.38;4900700;29;20199;-72
2022/05/31 08:34:37;;;;;;;1.10;0.93;;;;;;;16.68;64.22;100838.72;4907832;29;20212;-72
2022/05/31 08:37:04;;;;;;;1.40;1.20;;;;;;;16.75;60.66;100845.41;4910782;29;20210;-72
2022/05/31 08:39:30;;;;;;;1.43;1.33;;;;;;;16.59;60.10;100844.44;4906082;29;20239;-72
2022/05/31 08:42:04;;;;;;;1.20;1.10;;;;;;;16.30;59.73;100837.91;4910288;29;20470;-72
2022/05/31 08:44:36;;;;;;;1.77;1.17;;;;;;;16.01;60.55;100837.50;4905208;29;20209;-72
2022/05/31 08:47:08;;;;;;;2.30;1.20;;;;;;;16.15;62.60;100834.22;4906334;29;20212;-72
2022/05/31 08:52:47;;;;;;;1.40;1.30;;;;;;;16.25;58.02;100828.47;4905748;29;20222;-72
2022/05/31 08:58:09;;;;;;;2.70;1.20;;;;;;;16.80;60.66;100816.22;4904255;29;20239;-72
2022/05/31 09:00:40;;;;;;;1.70;1.27;;;;;;;17.04;64.57;100806.25;4906840;29;20211;-72
2022/05/31 09:03:14;;;;;;;1.60;1.10;;;;;;;17.11;56.43;100820.81;4905518;29;20231;-72
2022/05/31 09:05:47;;;;;;;1.57;1.17;;;;;;;16.86;53.00;100830.91;4905758;29;20208;-72
2022/05/31 09:08:18;;;;;;;1.37;1.20;;;;;;;17.03;55.42;100809.84;4902643;29;20234;-72
2022/05/31 09:10:50;;;;;;;2.13;1.30;;;;;;;17.19;59.62;100802.03;4900949;29;20205;-72
2022/05/31 09:13:23;;;;;;;1.10;1.00;;;;;;;17.29;56.46;100811.16;4899569;29;20303;-72
2022/05/31 09:15:54;;;;;;;1.67;1.03;;;;;;;17.53;59.38;100813.44;4908154;29;20214;-72
2022/05/31 09:18:24;;;;;;;1.80;1.13;;;;;;;17.81;61.14;100797.03;4901700;29;20227;-72
2022/05/31 09:20:55;;;;;;;1.40;1.20;;;;;;;17.76;58.13;100805.19;4908304;29;20215;-72
2022/05/31 09:23:24;;;;;;;1.27;1.17;;;;;;;17.64;54.56;100808.44;4900822;29;20279;-72
2022/05/31 09:25:59;;;;;;;0.90;0.90;;;;;;;17.70;54.25;100809.94;4904542;29;20218;-72
2022/05/31 09:28:33;;;;;;;1.37;1.17;;;;;;;17.83;51.87;100818.03;4908427;29;20627;-72
2022/05/31 09:31:14;;;;;;;1.90;1.20;;;;;;;18.04;55.95;100800.22;4906707;29;20218;-72
2022/05/31 09:33:53;;;;;;;1.50;1.00;;;;;;;18.01;51.40;100811.81;4904129;29;20216;-72
2022/05/31 09:36:27;;;;;;;1.60;1.20;;;;;;;18.23;58.57;100785.09;4908069;29;20239;-73
2022/05/31 09:39:13;;;;;;;1.87;1.17;;;;;;;18.28;56.47;100779.56;4910905;29;20242;-72
2022/05/31 09:41:44;;;;;;;1.47;1.30;;;;;;;18.27;53.45;100793.69;4911182;29;20976;-72
2022/05/31 09:44:17;;;;;;;2.17;1.43;;;;;;;18.33;57.42;100778.38;4908742;29;20207;-72
2022/05/31 09:46:49;;;;;;;1.77;1.27;;;;;;;18.50;58.99;100773.91;4904314;29;20207;-72
2022/05/31 09:49:23;;;;;;;1.30;1.20;;;;;;;18.32;53.11;100783.72;4904023;29;20228;-72
2022/05/31 09:51:52;;;;;;;1.43;1.20;;;;;;;18.27;54.11;100776.06;4908074;29;20271;-72
2022/05/31 09:57:41;;;;;;;1.33;1.23;;;;;;;18.45;52.84;100773.31;4905481;29;20215;-72
2022/05/31 10:00:28;;;;;;;1.30;1.20;;;;;;;18.59;51.08;100772.53;4903650;29;20208;-73
2022/05/31 10:03:00;;;;;;;1.50;1.17;;;;;;;18.51;49.54;100775.63;4909310;29;20283;-73
2022/05/31 10:05:26;;;;;;;3.20;1.40;;;;;;;18.47;49.92;100761.75;4905478;29;20212;-72
2022/05/31 10:07:54;;;;;;;3.27;1.47;;;;;;;18.38;49.75;100764.06;4905084;29;20324;-72
2022/05/31 10:10:27;;;;;;;1.13;1.03;;;;;;;18.60;51.79;100748.69;4911640;29;20208;-72
2022/05/31 10:12:55;;;;;;;2.50;1.30;;;;;;;18.72;53.47;100747.13;4905899;29;20709;-73
2022/05/31 10:15:45;;;;;;;1.10;1.00;;;;;;;18.88;50.56;100749.75;4909581;29;20572;-72
2022/05/31 10:18:14;;;;;;;1.57;1.10;;;;;;;18.62;49.95;100754.72;4905833;29;20227;-72
2022/05/31 10:20:53;;;;;;;2.03;1.17;;;;;;;18.51;54.29;100738.66;4907310;29;20299;-72
2022/05/31 10:23:24;;;;;;;2.07;1.43;;;;;;;18.81;54.66;100741.31;4905750;29;20250;-72
2022/05/31 10:26:25;;;;;;;1.40;1.10;;;;;;;19.08;51.76;100746.78;4907116;29;20624;-72
2022/05/31 10:29:15;;;;;;;1.87;1.27;;;;;;;19.31;50.80;100731.31;4908358;29;20218;-72
2022/05/31 10:31:58;;;;;;;1.10;1.00;;;;;;;19.37;50.77;100736.25;4908928;29;20219;-72
2022/05/31 10:34:35;;;;;;;1.70;1.30;;;;;;;19.36;51.30;100729.25;4907518;29;20224;-72
2022/05/31 10:37:04;;;;;;;1.07;0.97;;;;;;;19.41;50.48;100721.88;4906362;29;20223;-72
2022/05/31 10:39:36;;;;;;;1.20;1.10;;;;;;;19.14;49.32;100726.19;4907299;29;20228;-72
2022/05/31 10:42:08;;;;;;;5.10;1.40;;;;;;;18.95;51.77;100726.47;4913154;29;20314;-72
2022/05/31 10:44:39;;;;;;;1.40;1.20;;;;;;;18.92;54.44;100714.28;4902604;29;20219;-72
2022/05/31 10:47:11;;;;;;;1.30;1.20;;;;;;;19.11;52.37;100714.03;4908874;29;21827;-72
2022/05/31 10:49:37;;;;;;;1.60;1.30;;;;;;;19.18;50.72;100710.06;4903619;29;20238;-72
2022/05/31 10:52:13;;;;;;;1.47;1.17;;;;;;;19.16;52.33;100704.03;4906861;29;20692;-73
2022/05/31 10:54:56;;;;;;;1.50;1.00;;;;;;;19.08;50.60;100709.81;4907669;29;20582;-72
2022/05/31 10:57:39;;;;;;;1.27;1.10;;;;;;;19.33;51.61;100712.72;4905919;29;20709;-72
2022/05/31 11:00:08;;;;;;;2.97;1.37;;;;;;;19.48;52.43;100714.41;4939221;23;20740;-73
2022/05/31 11:02:54;;;;;;;1.70;1.60;;;;;;;19.58;48.08;100715.56;4935554;28;20594;-73
2022/05/31 11:05:30;;;;;;;1.20;1.10;;;;;;;19.92;46.79;100708.16;4934768;29;20199;-73
2022/05/31 11:13:52;;;;;;;1.37;1.23;;;;;;;19.86;44.82;100704.13;4909403;29;20247;-73
2022/05/31 11:16:25;;;;;;;1.57;1.40;;;;;;;19.83;44.92;100695.53;4914383;29;20195;-73
2022/05/31 11:19:08;;;;;;;1.30;1.20;;;;;;;19.97;46.32;100690.19;4916934;29;20224;-73
2022/05/31 11:21:48;;;;;;;1.50;1.27;;;;;;;19.88;43.57;100698.72;4906523;29;20715;-73
2022/05/31 11:24:29;;;;;;;2.80;1.50;;;;;;;19.74;47.59;100682.88;4909000;29;20196;-73
2022/05/31 11:27:11;;;;;;;1.00;0.90;;;;;;;19.97;48.86;100686.69;4913994;29;20226;-73
2022/05/31 11:30:05;;;;;;;1.90;1.50;;;;;;;20.32;49.71;100686.19;4909589;29;20677;-74
2022/05/31 11:32:52;;;;;;;1.53;1.30;;;;;;;20.57;48.66;100680.09;4904480;29;20215;-73
2022/05/31 11:35:32;;;;;;;1.33;1.23;;;;;;;20.47;47.04;100681.66;4902721;29;20211;-73
2022/05/31 11:38:04;;;;;;;1.40;1.30;;;;;;;20.70;48.27;100678.38;4914209;29;20204;-73
2022/05/31 11:40:41;;;;;;;1.20;1.10;;;;;;;20.54;42.93;100682.94;4906449;29;20259;-73
2022/05/31 11:43:41;;;;;;;1.10;1.00;;;;;;;20.60;47.01;100671.97;4910813;29;20793;-73
2022/05/31 11:46:15;;;;;;;6.10;1.40;;;;;;;20.42;47.75;100666.06;4907687;29;20222;-74
2022/05/31 11:49:00;;;;;;;1.27;1.17;;;;;;;20.36;44.15;100679.75;4911601;29;20231;-73
2022/05/31 11:51:42;;;;;;;2.07;1.40;;;;;;;20.19;43.81;100672.91;4914362;29;20267;-74
2022/05/31 11:54:25;;;;;;;1.20;1.10;;;;;;;20.03;47.65;100660.69;4913719;29;20216;-75
2022/05/31 11:57:07;;;;;;;1.37;1.20;;;;;;;19.38;43.52;100666.53;4907743;29;20212;-75
2022/05/31 11:59:42;;;;;;;1.83;1.40;;;;;;;19.40;46.15;100659.38;4915845;29;21162;-75
2022/05/31 12:02:17;;;;;;;2.67;1.30;;;;;;;19.59;49.97;100642.34;4907831;29;20215;-75
2022/05/31 12:04:47;;;;;;;1.60;1.23;;;;;;;19.88;49.06;100645.81;4913251;29;20207;-73
2022/05/31 12:07:18;;;;;;;3.67;1.60;;;;;;;20.09;44.66;100651.50;4911761;29;20584;-73
2022/05/31 12:09:49;;;;;;;1.13;1.07;;;;;;;20.35;46.71;100646.25;4912468;29;20715;-73
2022/05/31 12:12:19;;;;;;;1.50;1.30;;;;;;;20.58;47.55;100652.69;4913243;29;20780;-73
2022/05/31 12:14:51;;;;;;;1.10;1.00;;;;;;;20.69;42.45;100655.47;4910629;29;20209;-73
2022/05/31 12:17:21;;;;;;;3.00;1.20;;;;;;;20.56;42.73;100649.25;4902018;29;20197;-73